Strona główna
METAR-TAF:

METAR-TAF

Lotnisko :

Port lotniczy Asuan

Asuan, Egipt

Szerokość geograficzna: 23-58N, Długość geograficzna: 032-47E, wysokość: 200 m

Aktualna obserwacja pogody

Raport powstał 3 godziny i 10 minut temu, godzina 21:00 UTC
Wiatr 5 kt od północno-północny zachód
Temperatura 26°C
Wilgotność 9%
Ciśnienie 1011 hPa
Widzialność 10 km lub więcej
Brak chmur poniżej 1500 m i brak chmur cumulonimbus

METAR: HESN 042100Z 34005KT CAVOK 26/M09 Q1011 NOSIG

czas: 02:10 (00:10 UTC)

Prognoza

Raport powstał 1 godzina i 10 minut temu, godzina 23:00 UTC
Prognoza ważna od 05 godzina 00 UTC do 06 godzina 06 UTC
Wiatr 10 kt od północny wschód
Widzialność 10 km lub więcej
Brak chmur poniżej 1500 m i brak chmur cumulonimbus

TAF: HESN 042300Z 0500/0606 04010KT CAVOK

Obserwacja i prognoza pogody dla ponad 4000 lotnisk (raport METAR i TAF).

Dostępne stacje oznaczono żółtymi i czerwonymi punktami na mapie.

Najedź kursorem aby zobaczyć nazwę stacji.

Kliknij aby zobaczyć obserwacje i prognozy pogody.

Aby zmienić mapę: kliknij na zielony przycisk z czarnym krzyżykiem, aby powiększyć; na zielony przycisk z myślnikiem, aby pomniejszyć; na zielone strzałki, aby przejść do map sąsiednich.


METAR-TAF: